Terminal Aerodrome Forecast
Issued by NWS Detroit/Pontiac, MI

Home | Current Version | Previous Version | Text Only | Print | Product List | Glossary On
Versions: 1 2 3 4 5 6 7 8 9 10 11 12 13 14
118
FTUS43 KDTX 270523
TAFFNT
TAF
KFNT 270523Z 2706/2806 26005KT P6SM SCT250
     FM271200 25009G20KT P6SM FEW050
     FM271600 28015G26KT P6SM FEW060
     FM280100 30010KT P6SM SCT050 BKN100
     FM280500 33005KT P6SM BKN040=

USA.gov is the U.S. government's official web portal to all federal, state and local government web resources and services.